Terminal Aerodrome Forecast
Issued by NWS Lake Charles, LA

Home | Current Version | Previous Version | Text Only | Print | Product List | Glossary On
Versions: 1 2 3 4 5 6 7 8 9 10 11 12 13 14 15 16 17 18
000
FTUS44 KLCH 062049 AAA
TAFBPT
TAF AMD
KBPT 062049Z 0621/0718 12014KT P6SM BKN025 BKN035
     FM062200 13014KT P6SM SCT025 BKN035
     FM070200 13010KT P6SM SCT025 BKN250
     FM070500 14005KT P6SM BKN025=

USA.gov is the U.S. government's official web portal to all federal, state and local government web resources and services.